createdAt,value
2022-12-09T00:01:45.584Z,99047.53
2022-12-09T00:04:14.338Z,99057.22
2022-12-09T00:06:42.249Z,99058.78
2022-12-09T00:09:15.165Z,99052.94
2022-12-09T00:11:43.659Z,99051.22
2022-12-09T00:14:12.687Z,99052.16
2022-12-09T00:16:42.240Z,99026.13
2022-12-09T00:19:10.142Z,99050.31
2022-12-09T00:21:38.133Z,99049.91
2022-12-09T00:24:08.980Z,99043.56
2022-12-09T00:26:37.039Z,99036.31
2022-12-09T00:29:05.634Z,99042.13
2022-12-09T00:31:36.081Z,99049.94
2022-12-09T00:34:07.767Z,99041.03
2022-12-09T00:36:38.890Z,99044.63
2022-12-09T00:39:07.056Z,99044.81
2022-12-09T00:41:35.371Z,99046.66
2022-12-09T00:44:03.263Z,99045.16
2022-12-09T00:46:31.151Z,99045.16
2022-12-09T00:48:59.213Z,99043.31
2022-12-09T00:51:28.613Z,99041.63
2022-12-09T00:53:57.116Z,99037.44
2022-12-09T00:56:28.199Z,99042.59
2022-12-09T00:58:57.045Z,99043.44
2022-12-09T01:01:26.851Z,99042.47
2022-12-09T01:03:55.303Z,99042.44
2022-12-09T01:06:25.764Z,99040.06
2022-12-09T01:08:55.261Z,99037.78
2022-12-09T01:11:26.093Z,99039.66
2022-12-09T01:13:57.738Z,99032.41
2022-12-09T01:16:27.558Z,99035.75
2022-12-09T01:18:59.503Z,99028.38
2022-12-09T01:21:28.051Z,99021.81
2022-12-09T01:23:57.506Z,99025.31
2022-12-09T01:26:25.704Z,99017.88
2022-12-09T01:28:55.395Z,99022.88
2022-12-09T01:31:25.271Z,99024.53
2022-12-09T01:33:58.186Z,99011.22
2022-12-09T01:36:29.100Z,99000.53
2022-12-09T01:39:01.939Z,98997.13
2022-12-09T01:41:30.188Z,98993.88
2022-12-09T01:44:09.835Z,98987.34
2022-12-09T01:46:38.171Z,98990.66
2022-12-09T01:49:08.639Z,98992.31
2022-12-09T01:51:38.116Z,98992.31
2022-12-09T01:54:10.465Z,98990.50
2022-12-09T01:56:41.557Z,99014.72
2022-12-09T01:59:13.518Z,99023.06
2022-12-09T02:01:44.272Z,99015.63
2022-12-09T02:04:12.936Z,99009.91
2022-12-09T02:06:41.159Z,99018.13
2022-12-09T02:09:13.319Z,99009.72
2022-12-09T02:11:59.068Z,99008.16
2022-12-09T02:14:32.635Z,98998.97
2022-12-09T02:17:17.981Z,99013.22
2022-12-09T02:20:01.467Z,99014.78
2022-12-09T02:22:34.240Z,99007.41
2022-12-09T02:25:13.354Z,98991.56
2022-12-09T02:27:49.142Z,98995.09
2022-12-09T02:30:21.412Z,98990.97
2022-12-09T02:33:35.454Z,98996.66
2022-12-09T02:36:10.439Z,98987.94
2022-12-09T02:38:42.084Z,98977.66
2022-12-09T02:41:17.826Z,98987.88
2022-12-09T02:43:52.009Z,98991.47
2022-12-09T02:46:26.863Z,98987.34
2022-12-09T02:48:59.445Z,98981.31
2022-12-09T02:51:35.520Z,98973.72
2022-12-09T02:54:09.958Z,98987.09
2022-12-09T02:56:41.864Z,98995.44
2022-12-09T02:59:10.337Z,98987.22
2022-12-09T03:01:46.586Z,98998.72
2022-12-09T03:04:20.079Z,98987.22
2022-12-09T03:06:53.688Z,98987.34
2022-12-09T03:09:26.536Z,98988.97
2022-12-09T03:11:57.028Z,98986.38
2022-12-09T03:14:30.793Z,98991.34
2022-12-09T03:17:04.100Z,98972.34
2022-12-09T03:19:37.247Z,98972.34
2022-12-09T03:22:09.884Z,98980.69
2022-12-09T03:24:43.003Z,98985.00
2022-12-09T03:27:16.946Z,98981.84
2022-12-09T03:29:48.236Z,98983.47
2022-12-09T03:32:22.504Z,98995.94
2022-12-09T03:34:55.857Z,98968.13
2022-12-09T03:37:25.553Z,98996.84
2022-12-09T03:39:56.626Z,98996.06
2022-12-09T03:42:32.490Z,98991.06
2022-12-09T03:45:05.043Z,98993.66
2022-12-09T03:47:34.900Z,98966.06
2022-12-09T03:50:06.771Z,98981.25
2022-12-09T03:52:41.514Z,98973.69
2022-12-09T03:55:13.466Z,98959.97
2022-12-09T03:57:44.278Z,98976.59
2022-12-09T04:00:13.490Z,98976.47
2022-12-09T04:02:41.800Z,98977.31
2022-12-09T04:05:10.509Z,98979.13
2022-12-09T04:07:40.292Z,98978.41
2022-12-09T04:10:09.564Z,98973.25
2022-12-09T04:12:37.627Z,98986.50
2022-12-09T04:15:06.612Z,98980.69
2022-12-09T04:17:34.501Z,98979.66
2022-12-09T04:20:02.631Z,98957.16
2022-12-09T04:22:31.854Z,98983.25
2022-12-09T04:25:01.418Z,98994.13
2022-12-09T04:27:29.455Z,98984.25
2022-12-09T04:29:57.544Z,98982.50
2022-12-09T04:32:27.499Z,98972.59
2022-12-09T04:34:55.538Z,98950.72
2022-12-09T04:37:23.788Z,98965.22
2022-12-09T04:39:52.001Z,98963.59
2022-12-09T04:42:21.342Z,98959.28
2022-12-09T04:44:49.210Z,98941.72
2022-12-09T04:47:17.994Z,98945.22
2022-12-09T04:49:45.950Z,98937.91
2022-12-09T04:52:13.833Z,98931.38
2022-12-09T04:54:41.792Z,98933.06
2022-12-09T04:57:09.841Z,98933.16
2022-12-09T04:59:39.497Z,98917.50
2022-12-09T05:02:07.863Z,98927.56
2022-12-09T05:04:36.054Z,98916.88
2022-12-09T05:07:04.269Z,98915.22
2022-12-09T05:09:32.963Z,98915.34
2022-12-09T05:12:01.110Z,98912.75
2022-12-09T05:14:29.637Z,98911.06
2022-12-09T05:16:58.956Z,98917.72
2022-12-09T05:19:27.206Z,98911.97
2022-12-09T05:21:55.303Z,98911.06
2022-12-09T05:24:23.671Z,98918.63
2022-12-09T05:26:51.925Z,98921.88
2022-12-09T05:29:23.043Z,98916.06
2022-12-09T05:31:52.587Z,98919.22
2022-12-09T05:34:22.162Z,98923.56
2022-12-09T05:36:52.017Z,98918.63
2022-12-09T05:39:20.441Z,98916.03
2022-12-09T05:41:48.534Z,98926.59
2022-12-09T05:44:18.375Z,98925.81
2022-12-09T05:46:46.343Z,98930.78
2022-12-09T05:49:15.210Z,98933.31
2022-12-09T05:51:44.903Z,98926.59
2022-12-09T05:54:13.029Z,98933.38
2022-12-09T05:56:47.590Z,98932.53
2022-12-09T05:59:16.284Z,98932.53
2022-12-09T06:01:44.573Z,98930.84
2022-12-09T06:04:12.829Z,98928.41
2022-12-09T06:06:41.504Z,98929.19
2022-12-09T06:09:12.172Z,98924.25
2022-12-09T06:11:41.203Z,98914.19
2022-12-09T06:14:11.344Z,98918.31
2022-12-09T06:16:39.778Z,98917.53
2022-12-09T06:19:08.154Z,98909.31
2022-12-09T06:21:36.432Z,98905.19
2022-12-09T06:24:06.290Z,98899.31
2022-12-09T06:26:36.265Z,98896.59
2022-12-09T06:29:04.840Z,98894.31
2022-12-09T06:31:32.793Z,98887.72
2022-12-09T06:34:01.973Z,98883.59
2022-12-09T06:36:32.762Z,98878.59
2022-12-09T06:39:09.670Z,98878.63
2022-12-09T06:41:42.133Z,98876.94
2022-12-09T06:44:14.301Z,98877.63
2022-12-09T06:46:45.152Z,98870.41
2022-12-09T06:49:13.616Z,98880.41
2022-12-09T06:51:41.710Z,98872.19
2022-12-09T06:54:10.347Z,98865.47
2022-12-09T06:56:39.948Z,98871.28
2022-12-09T06:59:09.325Z,98862.97
2022-12-09T07:01:38.703Z,98854.69
2022-12-09T07:04:08.351Z,98865.53
2022-12-09T07:06:39.118Z,98874.84
2022-12-09T07:09:10.549Z,98859.13
2022-12-09T07:11:40.468Z,98859.34
2022-12-09T07:14:08.792Z,98857.84
2022-12-09T07:16:37.702Z,98861.22
2022-12-09T07:19:07.811Z,98864.59
2022-12-09T07:21:35.869Z,98866.34
2022-12-09T07:24:04.700Z,98861.31
2022-12-09T07:26:33.749Z,98865.72
2022-12-09T07:29:05.346Z,98867.41
2022-12-09T07:31:35.574Z,98854.25
2022-12-09T07:34:05.805Z,98853.47
2022-12-09T07:36:35.881Z,98846.06
2022-12-09T07:39:07.884Z,98855.50
2022-12-09T07:41:36.273Z,98846.53
2022-12-09T07:44:06.252Z,98852.44
2022-12-09T07:46:34.851Z,98842.50
2022-12-09T07:49:04.630Z,98831.53
2022-12-09T07:51:33.355Z,98842.59
2022-12-09T07:54:01.812Z,98830.22
2022-12-09T07:56:30.225Z,98821.16
2022-12-09T07:59:00.142Z,98826.31
2022-12-09T08:01:31.053Z,98823.19
2022-12-09T08:03:59.376Z,98822.44
2022-12-09T08:06:29.453Z,98827.00
2022-12-09T08:08:59.626Z,98819.19
2022-12-09T08:11:30.355Z,98832.53
2022-12-09T08:14:02.780Z,98829.22
2022-12-09T08:16:35.787Z,98817.59
2022-12-09T08:19:04.352Z,98842.69
2022-12-09T08:21:34.371Z,98835.16
2022-12-09T08:24:05.907Z,98836.88
2022-12-09T08:26:37.588Z,98842.69
2022-12-09T08:29:09.149Z,98838.56
2022-12-09T08:31:41.949Z,98838.47
2022-12-09T08:34:11.114Z,98834.13
2022-12-09T08:36:39.403Z,98836.94
2022-12-09T08:39:07.875Z,98836.25
2022-12-09T08:41:38.608Z,98836.38
2022-12-09T08:44:09.081Z,98834.56
2022-12-09T08:46:40.948Z,98829.69
2022-12-09T08:49:10.058Z,98827.47
2022-12-09T08:51:38.177Z,98814.31
2022-12-09T08:54:06.940Z,98803.59
2022-12-09T08:56:35.251Z,98802.81
2022-12-09T08:59:04.007Z,98819.72
2022-12-09T09:01:34.902Z,98813.94
2022-12-09T09:04:07.584Z,98816.34
2022-12-09T09:06:36.537Z,98810.44
2022-12-09T09:09:05.800Z,98792.22
2022-12-09T09:11:34.651Z,98799.03
2022-12-09T09:14:04.952Z,98801.72
2022-12-09T09:16:33.700Z,98787.47
2022-12-09T09:19:03.756Z,98796.72
2022-12-09T09:21:33.872Z,98795.03
2022-12-09T09:24:02.339Z,98795.06
2022-12-09T09:26:31.034Z,98782.50
2022-12-09T09:28:59.302Z,98791.78
2022-12-09T09:31:27.543Z,98792.53
2022-12-09T09:33:55.907Z,98796.63
2022-12-09T09:36:25.899Z,98790.84
2022-12-09T09:38:57.572Z,98771.63
2022-12-09T09:41:35.640Z,98772.53
2022-12-09T09:44:04.665Z,98770.09
2022-12-09T09:46:38.890Z,98771.00
2022-12-09T09:49:17.493Z,98756.25
2022-12-09T09:51:46.824Z,98761.25
2022-12-09T09:54:16.769Z,98749.59
2022-12-09T09:56:55.068Z,98734.66
2022-12-09T09:59:34.392Z,98730.75
2022-12-09T10:02:19.406Z,98724.16
2022-12-09T10:05:00.148Z,98718.34
2022-12-09T10:07:34.822Z,98707.53
2022-12-09T10:10:17.762Z,98708.53
2022-12-09T10:13:08.071Z,98705.53
2022-12-09T10:15:43.030Z,98697.19
2022-12-09T10:18:21.058Z,98684.69
2022-12-09T10:20:49.813Z,98672.28
2022-12-09T10:23:19.186Z,98670.13
2022-12-09T10:25:53.888Z,98679.56
2022-12-09T10:28:24.719Z,98669.72
2022-12-09T10:30:55.753Z,98662.66
2022-12-09T10:33:28.360Z,98656.19
2022-12-09T10:35:56.938Z,98644.00
2022-12-09T10:38:26.741Z,98639.25
2022-12-09T10:41:02.943Z,98627.72
2022-12-09T10:43:38.902Z,98628.25
2022-12-09T10:46:19.944Z,98592.91
2022-12-09T10:48:55.998Z,98617.53
2022-12-09T10:51:27.012Z,98606.09
2022-12-09T10:53:59.074Z,98606.97
2022-12-09T10:56:35.065Z,98605.41
2022-12-09T10:59:12.735Z,98602.25
2022-12-09T11:01:50.648Z,98583.88
2022-12-09T11:04:24.193Z,98603.81
2022-12-09T11:06:59.476Z,98606.00
2022-12-09T11:09:32.211Z,98598.50
2022-12-09T11:12:03.443Z,98600.19
2022-12-09T11:14:35.969Z,98592.56
2022-12-09T11:17:15.536Z,98594.88
2022-12-09T11:19:51.436Z,98565.22
2022-12-09T11:22:28.405Z,98593.09
2022-12-09T11:25:13.021Z,98597.31
2022-12-09T11:27:53.006Z,98593.81
2022-12-09T11:30:24.848Z,98582.34
2022-12-09T11:33:21.270Z,98579.22
2022-12-09T11:35:55.948Z,98554.13
2022-12-09T11:38:32.667Z,98565.25
2022-12-09T11:41:05.416Z,98572.81
2022-12-09T11:43:39.752Z,98570.97
2022-12-09T11:46:18.812Z,98567.59
2022-12-09T11:48:52.583Z,98561.59
2022-12-09T11:51:23.916Z,98554.00
2022-12-09T11:53:56.616Z,98525.50
2022-12-09T11:56:28.775Z,98534.06
2022-12-09T11:59:04.649Z,98522.53
2022-12-09T12:01:46.505Z,98523.88
2022-12-09T12:04:18.579Z,98516.16
2022-12-09T12:06:50.205Z,98511.22
2022-12-09T12:09:28.561Z,98513.69
2022-12-09T12:12:04.015Z,98513.50
2022-12-09T12:14:36.815Z,98500.97
2022-12-09T12:17:10.478Z,98486.69
2022-12-09T12:19:41.285Z,98487.06
2022-12-09T12:22:54.344Z,98480.13
2022-12-09T12:25:41.142Z,98471.44
2022-12-09T12:28:46.000Z,98463.47
2022-12-09T12:31:30.970Z,98450.25
2022-12-09T12:34:24.470Z,98440.28
2022-12-09T12:37:03.239Z,98432.09
2022-12-09T12:39:44.845Z,98432.16
2022-12-09T12:42:26.218Z,98433.94
2022-12-09T12:45:21.438Z,98425.66
2022-12-09T12:48:00.630Z,98435.75
2022-12-09T12:50:51.689Z,98409.13
2022-12-09T12:53:31.674Z,98415.81
2022-12-09T12:56:04.034Z,98428.94
2022-12-09T12:58:45.783Z,98433.03
2022-12-09T13:01:21.686Z,98410.03
2022-12-09T13:04:02.053Z,98419.09
2022-12-09T13:06:39.345Z,98417.09
2022-12-09T13:09:13.394Z,98407.03
2022-12-09T13:11:52.156Z,98400.63
2022-12-09T13:14:23.976Z,98404.81
2022-12-09T13:16:53.827Z,98404.22
2022-12-09T13:19:32.243Z,98395.72
2022-12-09T13:22:00.397Z,98394.84
2022-12-09T13:24:37.766Z,98390.56
2022-12-09T13:27:09.635Z,98380.56
2022-12-09T13:29:44.050Z,98392.81
2022-12-09T13:32:22.261Z,98391.25
2022-12-09T13:34:55.132Z,98387.94
2022-12-09T13:38:02.233Z,98386.94
2022-12-09T13:40:35.272Z,98386.72
2022-12-09T13:43:12.874Z,98385.78
2022-12-09T13:45:50.389Z,98373.31
2022-12-09T13:48:48.984Z,98391.22
2022-12-09T13:51:19.138Z,98388.69
2022-12-09T13:53:51.256Z,98386.13
2022-12-09T13:56:26.969Z,98386.97
2022-12-09T13:59:21.222Z,98373.88
2022-12-09T14:01:52.012Z,98369.75
2022-12-09T14:04:25.559Z,98373.16
2022-12-09T14:07:10.269Z,98367.38
2022-12-09T14:09:48.238Z,98368.06
2022-12-09T14:12:54.394Z,98361.44
2022-12-09T14:15:37.542Z,98359.66
2022-12-09T14:18:27.319Z,98359.97
2022-12-09T14:21:38.073Z,98351.44
2022-12-09T14:24:32.412Z,98342.66
2022-12-09T14:27:18.338Z,98350.63
2022-12-09T14:29:49.329Z,98352.19
2022-12-09T14:32:29.082Z,98342.72
2022-12-09T14:35:19.358Z,98333.69
2022-12-09T14:38:03.269Z,98336.97
2022-12-09T14:40:39.869Z,98337.84
2022-12-09T14:43:28.297Z,98322.66
2022-12-09T14:46:02.598Z,98326.00
2022-12-09T14:48:33.775Z,98298.34
2022-12-09T14:51:15.781Z,98315.44
2022-12-09T14:53:45.339Z,98305.63
2022-12-09T14:56:19.722Z,98294.09
2022-12-09T14:58:50.200Z,98256.63
2022-12-09T15:01:22.087Z,98285.06
2022-12-09T15:04:00.279Z,98287.47
2022-12-09T15:06:28.375Z,98289.94
2022-12-09T15:08:58.492Z,98277.25
2022-12-09T15:11:31.508Z,98272.81
2022-12-09T15:14:24.400Z,98262.94
2022-12-09T15:16:52.593Z,98253.19
2022-12-09T15:19:57.957Z,98230.56
2022-12-09T15:22:21.884Z,98255.66
2022-12-09T15:24:51.134Z,98258.78
2022-12-09T15:27:23.958Z,98254.63
2022-12-09T15:29:53.549Z,98241.34
2022-12-09T15:32:25.376Z,98238.19
2022-12-09T15:34:54.352Z,98230.88
2022-12-09T15:37:27.379Z,98239.19
2022-12-09T15:40:01.283Z,98248.22
2022-12-09T15:42:33.558Z,98255.47
2022-12-09T15:45:07.710Z,98239.41
2022-12-09T15:47:39.960Z,98250.25
2022-12-09T15:50:18.390Z,98246.19
2022-12-09T15:52:51.538Z,98252.91
2022-12-09T15:55:22.723Z,98254.56
2022-12-09T15:57:55.539Z,98238.59
2022-12-09T16:00:23.739Z,98230.09
2022-12-09T16:02:52.135Z,98232.53
2022-12-09T16:05:25.793Z,98243.53
2022-12-09T16:07:58.498Z,98251.66
2022-12-09T16:10:27.652Z,98238.47
2022-12-09T16:13:08.904Z,98228.56
2022-12-09T16:15:51.305Z,98224.47
2022-12-09T16:18:22.996Z,98226.97
2022-12-09T16:21:01.164Z,98235.28
2022-12-09T16:23:29.772Z,98230.25
2022-12-09T16:26:06.327Z,98223.41
2022-12-09T16:28:36.716Z,98224.38
2022-12-09T16:31:18.506Z,98204.28
2022-12-09T16:33:49.640Z,98218.03
2022-12-09T16:36:21.986Z,98223.03
2022-12-09T16:39:25.915Z,98224.25
2022-12-09T16:42:01.648Z,98214.53
2022-12-09T16:44:34.476Z,98209.59
2022-12-09T16:47:16.118Z,98215.09
2022-12-09T16:49:46.786Z,98197.63
2022-12-09T16:52:16.500Z,98198.31
2022-12-09T16:54:46.769Z,98196.63
2022-12-09T16:57:15.910Z,98198.94
2022-12-09T16:59:45.847Z,98194.72
2022-12-09T17:02:22.565Z,98185.53
2022-12-09T17:04:52.330Z,98190.56
2022-12-09T17:07:20.284Z,98163.25
2022-12-09T17:09:48.325Z,98169.28
2022-12-09T17:12:16.402Z,98162.75
2022-12-09T17:14:45.742Z,98156.06
2022-12-09T17:17:13.674Z,98165.41
2022-12-09T17:19:42.075Z,98158.09
2022-12-09T17:22:10.278Z,98163.84
2022-12-09T17:24:38.424Z,98144.03
2022-12-09T17:27:06.763Z,98133.38
2022-12-09T17:29:34.613Z,98129.28
2022-12-09T17:32:04.001Z,98126.72
2022-12-09T17:34:31.982Z,98127.50
2022-12-09T17:36:59.829Z,98133.22
2022-12-09T17:39:27.746Z,98133.22
2022-12-09T17:41:55.630Z,98124.91
2022-12-09T17:44:23.673Z,98129.06
2022-12-09T17:46:51.923Z,98134.81
2022-12-09T17:49:21.917Z,98138.16
2022-12-09T17:51:50.028Z,98136.56
2022-12-09T17:54:18.095Z,98111.50
2022-12-09T17:56:46.528Z,98108.44
2022-12-09T17:59:16.383Z,98112.63
2022-12-09T18:01:47.534Z,98110.94
2022-12-09T18:04:16.177Z,98129.06
2022-12-09T18:06:46.902Z,98137.47
2022-12-09T18:09:17.332Z,98108.50
2022-12-09T18:11:46.160Z,98116.69
2022-12-09T18:14:14.638Z,98117.38
2022-12-09T18:16:42.846Z,98114.88
2022-12-09T18:19:15.135Z,98114.81
2022-12-09T18:21:44.799Z,98118.16
2022-12-09T18:24:13.171Z,98120.66
2022-12-09T18:26:42.399Z,98125.63
2022-12-09T18:29:10.618Z,98123.03
2022-12-09T18:31:39.423Z,98141.38
2022-12-09T18:34:07.750Z,98147.88
2022-12-09T18:36:35.856Z,98106.47
2022-12-09T18:39:05.471Z,98083.38
2022-12-09T18:41:34.101Z,98070.34
2022-12-09T18:44:04.475Z,98082.19
2022-12-09T18:46:34.960Z,98059.22
2022-12-09T18:49:05.022Z,98054.41
2022-12-09T18:51:33.558Z,98053.69
2022-12-09T18:54:02.605Z,98029.41
2022-12-09T18:56:32.800Z,98057.88
2022-12-09T18:59:06.915Z,98057.81
2022-12-09T19:01:39.661Z,98089.28
2022-12-09T19:04:11.505Z,98092.59
2022-12-09T19:06:41.674Z,98057.34
2022-12-09T19:09:12.382Z,98065.84
2022-12-09T19:11:42.979Z,98071.06
2022-12-09T19:14:11.481Z,98087.63
2022-12-09T19:16:39.837Z,98077.66
2022-12-09T19:19:10.366Z,98056.97
2022-12-09T19:21:39.516Z,98075.94
2022-12-09T19:24:13.187Z,98068.97
2022-12-09T19:26:43.839Z,98049.19
2022-12-09T19:29:12.877Z,98043.47
2022-12-09T19:31:43.132Z,98060.78
2022-12-09T19:34:14.634Z,98060.78
2022-12-09T19:36:42.794Z,98057.34
2022-12-09T19:39:12.236Z,98047.97
2022-12-09T19:41:41.439Z,98048.84
2022-12-09T19:44:12.000Z,98058.19
2022-12-09T19:46:40.783Z,98066.50
2022-12-09T19:49:08.769Z,98054.13
2022-12-09T19:51:36.799Z,98059.03
2022-12-09T19:54:05.067Z,98062.38
2022-12-09T19:56:33.066Z,98053.91
2022-12-09T19:59:01.219Z,98047.38
2022-12-09T20:01:32.669Z,98042.25
2022-12-09T20:04:18.988Z,98050.75
2022-12-09T20:06:51.076Z,98044.16
2022-12-09T20:09:24.254Z,98044.09
2022-12-09T20:11:53.032Z,98017.31
2022-12-09T20:14:21.294Z,98042.41
2022-12-09T20:16:50.736Z,98049.16
2022-12-09T20:19:19.798Z,98049.00
2022-12-09T20:21:47.755Z,98059.81
2022-12-09T20:24:15.660Z,98059.81
2022-12-09T20:26:44.264Z,98055.75
2022-12-09T20:29:12.414Z,98057.41
2022-12-09T20:31:40.828Z,98066.50
2022-12-09T20:34:13.985Z,98061.53
2022-12-09T20:36:43.956Z,98065.66
2022-12-09T20:39:15.153Z,98064.00
2022-12-09T20:41:44.521Z,98050.78
2022-12-09T20:44:14.021Z,98046.63
2022-12-09T20:46:42.924Z,98053.31
2022-12-09T20:49:14.775Z,98045.69
2022-12-09T20:51:47.058Z,98063.28
2022-12-09T20:54:15.224Z,98057.53
2022-12-09T20:56:43.328Z,98054.31
2022-12-09T20:59:13.479Z,98060.13
2022-12-09T21:01:43.472Z,98033.28
2022-12-09T21:04:12.667Z,98063.31
2022-12-09T21:06:41.689Z,98069.13
2022-12-09T21:09:12.788Z,98062.56
2022-12-09T21:11:40.766Z,98049.22
2022-12-09T21:14:09.104Z,98053.63
2022-12-09T21:16:39.700Z,98049.44
2022-12-09T21:19:10.326Z,98057.03
2022-12-09T21:21:41.207Z,98065.38
2022-12-09T21:24:11.506Z,98067.94
2022-12-09T21:26:39.619Z,98053.88
2022-12-09T21:29:08.421Z,98062.97
2022-12-09T21:31:37.832Z,98067.91
2022-12-09T21:34:07.582Z,98070.28
2022-12-09T21:36:37.591Z,98061.16
2022-12-09T21:39:09.078Z,98059.59
2022-12-09T21:41:38.282Z,98054.78
2022-12-09T21:44:07.411Z,98046.69
2022-12-09T21:46:37.081Z,98033.50
2022-12-09T21:49:06.791Z,98046.78
2022-12-09T21:51:35.855Z,98050.94
2022-12-09T21:54:04.769Z,98050.97
2022-12-09T21:56:36.907Z,98058.38
2022-12-09T21:59:06.606Z,98060.06
2022-12-09T22:01:36.288Z,98055.03
2022-12-09T22:04:06.436Z,98056.78
2022-12-09T22:06:34.783Z,98053.44
2022-12-09T22:09:03.331Z,98038.38
2022-12-09T22:11:32.724Z,98066.69
2022-12-09T22:14:02.906Z,98068.38
2022-12-09T22:16:34.551Z,98065.81
2022-12-09T22:19:04.670Z,98071.63
2022-12-09T22:21:33.576Z,98075.69
2022-12-09T22:24:04.152Z,98080.72
2022-12-09T22:26:32.534Z,98076.53
2022-12-09T22:29:02.646Z,98072.31
2022-12-09T22:31:32.520Z,98079.91
2022-12-09T22:34:01.986Z,98077.38
2022-12-09T22:36:29.893Z,98079.81
2022-12-09T22:38:58.000Z,98074.00
2022-12-09T22:41:28.330Z,98075.63
2022-12-09T22:43:56.828Z,98067.22
2022-12-09T22:46:28.290Z,98063.03
2022-12-09T22:48:57.174Z,98069.59
2022-12-09T22:51:26.776Z,98074.63
2022-12-09T22:53:56.357Z,98074.53
2022-12-09T22:56:25.701Z,98083.63
2022-12-09T22:58:53.858Z,98069.47
2022-12-09T23:01:23.732Z,98066.16
2022-12-09T23:03:53.262Z,98066.16
2022-12-09T23:06:21.238Z,98065.34
2022-12-09T23:08:49.143Z,98075.34
2022-12-09T23:11:19.704Z,98071.25
2022-12-09T23:13:48.380Z,98063.78
2022-12-09T23:16:21.367Z,98067.19
2022-12-09T23:18:49.717Z,98072.16
2022-12-09T23:21:20.555Z,98069.72
2022-12-09T23:23:48.687Z,98068.97
2022-12-09T23:26:18.947Z,98060.59
2022-12-09T23:28:49.150Z,98082.97
2022-12-09T23:31:20.392Z,98078.06
2022-12-09T23:33:49.620Z,98081.50
2022-12-09T23:36:21.427Z,98077.44
2022-12-09T23:38:50.111Z,98085.69
2022-12-09T23:41:20.119Z,98072.34
2022-12-09T23:43:49.616Z,98087.41
2022-12-09T23:46:19.150Z,98098.31
2022-12-09T23:48:48.764Z,98096.69
2022-12-09T23:51:18.440Z,98095.06
2022-12-09T23:53:49.495Z,98095.06
2022-12-09T23:56:19.748Z,98091.88
2022-12-09T23:58:48.616Z,98087.06
